sensor_id;sensor_type;location;lat;lon;timestamp;pressure;altitude;pressure_sealevel;temperature;humidity
34931;BME280;21134;49.646;8.560;2023-01-31T00:00:21;101448.81;;;3.50;96.83
34931;BME280;21134;49.646;8.560;2023-01-31T00:02:47;101463.00;;;3.46;96.99
34931;BME280;21134;49.646;8.560;2023-01-31T00:05:14;101458.75;;;3.45;97.65
34931;BME280;21134;49.646;8.560;2023-01-31T00:07:40;101458.59;;;3.42;97.24
34931;BME280;21134;49.646;8.560;2023-01-31T00:10:08;101467.72;;;3.39;97.57
34931;BME280;21134;49.646;8.560;2023-01-31T00:12:36;101459.19;;;3.37;97.88
34931;BME280;21134;49.646;8.560;2023-01-31T00:15:03;101454.94;;;3.36;98.40
34931;BME280;21134;49.646;8.560;2023-01-31T00:17:30;101454.22;;;3.38;97.95
34931;BME280;21134;49.646;8.560;2023-01-31T00:19:56;101450.03;;;3.39;98.65
34931;BME280;21134;49.646;8.560;2023-01-31T00:22:23;101450.47;;;3.49;98.12
34931;BME280;21134;49.646;8.560;2023-01-31T00:24:49;101447.09;;;3.49;97.96
34931;BME280;21134;49.646;8.560;2023-01-31T00:27:15;101449.06;;;3.56;97.39
34931;BME280;21134;49.646;8.560;2023-01-31T00:29:43;101449.59;;;3.68;96.41
34931;BME280;21134;49.646;8.560;2023-01-31T00:32:10;101451.06;;;3.63;96.08
34931;BME280;21134;49.646;8.560;2023-01-31T00:34:36;101456.34;;;3.89;94.05
34931;BME280;21134;49.646;8.560;2023-01-31T00:37:03;101452.69;;;3.82;94.21
34931;BME280;21134;49.646;8.560;2023-01-31T00:39:29;101458.28;;;3.73;94.16
34931;BME280;21134;49.646;8.560;2023-01-31T00:41:56;101453.59;;;4.04;92.44
34931;BME280;21134;49.646;8.560;2023-01-31T00:44:22;101451.50;;;3.93;93.64
34931;BME280;21134;49.646;8.560;2023-01-31T00:46:50;101440.56;;;3.94;93.11
34931;BME280;21134;49.646;8.560;2023-01-31T00:49:16;101436.47;;;3.98;92.86
34931;BME280;21134;49.646;8.560;2023-01-31T00:51:43;101437.84;;;4.11;92.67
34931;BME280;21134;49.646;8.560;2023-01-31T00:54:10;101439.84;;;4.18;91.30
34931;BME280;21134;49.646;8.560;2023-01-31T00:56:37;101446.19;;;4.08;91.82
34931;BME280;21134;49.646;8.560;2023-01-31T00:59:03;101445.09;;;4.23;90.38
34931;BME280;21134;49.646;8.560;2023-01-31T01:01:33;101438.19;;;4.18;90.78
34931;BME280;21134;49.646;8.560;2023-01-31T01:04:02;101439.19;;;4.24;90.63
34931;BME280;21134;49.646;8.560;2023-01-31T01:06:28;101443.56;;;4.05;91.71
34931;BME280;21134;49.646;8.560;2023-01-31T01:08:55;101444.94;;;3.99;91.18
34931;BME280;21134;49.646;8.560;2023-01-31T01:11:26;101443.69;;;3.89;92.42
34931;BME280;21134;49.646;8.560;2023-01-31T01:13:53;101447.97;;;3.90;92.15
34931;BME280;21134;49.646;8.560;2023-01-31T01:16:21;101445.56;;;3.93;92.33
34931;BME280;21134;49.646;8.560;2023-01-31T01:18:49;101451.31;;;4.10;90.92
34931;BME280;21134;49.646;8.560;2023-01-31T01:21:18;101453.47;;;4.01;90.82
34931;BME280;21134;49.646;8.560;2023-01-31T01:23:45;101455.19;;;4.02;91.41
34931;BME280;21134;49.646;8.560;2023-01-31T01:26:13;101449.97;;;3.97;91.19
34931;BME280;21134;49.646;8.560;2023-01-31T01:28:41;101458.63;;;3.83;91.95
34931;BME280;21134;49.646;8.560;2023-01-31T01:31:09;101461.28;;;3.86;92.13
34931;BME280;21134;49.646;8.560;2023-01-31T01:33:36;101462.78;;;3.81;91.93
34931;BME280;21134;49.646;8.560;2023-01-31T01:36:05;101460.25;;;3.81;91.67
34931;BME280;21134;49.646;8.560;2023-01-31T01:38:34;101460.84;;;3.75;92.11
34931;BME280;21134;49.646;8.560;2023-01-31T01:41:02;101465.88;;;3.73;92.04
34931;BME280;21134;49.646;8.560;2023-01-31T01:43:42;101461.84;;;3.79;91.71
34931;BME280;21134;49.646;8.560;2023-01-31T01:46:11;101470.03;;;3.73;91.99
34931;BME280;21134;49.646;8.560;2023-01-31T01:48:39;101463.47;;;3.77;91.79
34931;BME280;21134;49.646;8.560;2023-01-31T01:51:08;101471.25;;;3.62;92.55
34931;BME280;21134;49.646;8.560;2023-01-31T01:53:38;101471.44;;;3.66;91.86
34931;BME280;21134;49.646;8.560;2023-01-31T01:56:09;101467.25;;;3.67;91.55
34931;BME280;21134;49.646;8.560;2023-01-31T01:58:42;101474.25;;;3.53;92.46
34931;BME280;21134;49.646;8.560;2023-01-31T02:01:12;101470.19;;;3.57;92.39
34931;BME280;21134;49.646;8.560;2023-01-31T02:03:42;101484.59;;;3.58;91.90
34931;BME280;21134;49.646;8.560;2023-01-31T02:06:10;101473.19;;;3.48;92.78
34931;BME280;21134;49.646;8.560;2023-01-31T02:08:41;101478.25;;;3.48;92.33
34931;BME280;21134;49.646;8.560;2023-01-31T02:11:12;101479.84;;;3.46;92.16
34931;BME280;21134;49.646;8.560;2023-01-31T02:13:40;101476.72;;;3.32;93.22
34931;BME280;21134;49.646;8.560;2023-01-31T02:16:08;101484.16;;;3.29;93.99
34931;BME280;21134;49.646;8.560;2023-01-31T02:18:34;101484.75;;;3.23;94.47
34931;BME280;21134;49.646;8.560;2023-01-31T02:21:42;101480.94;;;3.14;94.45
34931;BME280;21134;49.646;8.560;2023-01-31T02:24:40;101480.59;;;3.06;95.05
34931;BME280;21134;49.646;8.560;2023-01-31T02:27:26;101488.97;;;3.05;95.77
34931;BME280;21134;49.646;8.560;2023-01-31T02:30:27;101490.78;;;3.08;95.15
34931;BME280;21134;49.646;8.560;2023-01-31T02:33:06;101485.31;;;2.98;95.18
34931;BME280;21134;49.646;8.560;2023-01-31T02:35:48;101484.44;;;2.98;96.08
34931;BME280;21134;49.646;8.560;2023-01-31T02:38:34;101493.19;;;2.87;95.93
34931;BME280;21134;49.646;8.560;2023-01-31T02:41:11;101477.00;;;2.83;95.81
34931;BME280;21134;49.646;8.560;2023-01-31T02:43:44;101473.47;;;2.79;95.87
34931;BME280;21134;49.646;8.560;2023-01-31T02:46:36;101470.66;;;2.73;96.52
34931;BME280;21134;49.646;8.560;2023-01-31T02:49:14;101473.28;;;2.75;96.35
34931;BME280;21134;49.646;8.560;2023-01-31T02:52:02;101466.13;;;2.66;96.61
34931;BME280;21134;49.646;8.560;2023-01-31T02:54:44;101465.78;;;2.59;97.16
34931;BME280;21134;49.646;8.560;2023-01-31T02:57:31;101462.38;;;2.58;97.10
34931;BME280;21134;49.646;8.560;2023-01-31T02:59:59;101471.25;;;2.50;97.01
34931;BME280;21134;49.646;8.560;2023-01-31T03:02:26;101472.13;;;2.50;97.56
34931;BME280;21134;49.646;8.560;2023-01-31T03:04:54;101468.50;;;2.45;97.08
34931;BME280;21134;49.646;8.560;2023-01-31T03:07:23;101468.16;;;2.38;97.31
34931;BME280;21134;49.646;8.560;2023-01-31T03:09:58;101476.22;;;2.30;97.55
34931;BME280;21134;49.646;8.560;2023-01-31T03:12:35;101470.16;;;2.27;97.80
34931;BME280;21134;49.646;8.560;2023-01-31T03:18:23;101483.19;;;2.18;98.32
34931;BME280;21134;49.646;8.560;2023-01-31T03:20:58;101493.06;;;2.14;98.40
34931;BME280;21134;49.646;8.560;2023-01-31T03:23:27;101491.03;;;2.06;98.52
34931;BME280;21134;49.646;8.560;2023-01-31T03:25:57;101492.53;;;2.03;99.02
34931;BME280;21134;49.646;8.560;2023-01-31T03:28:27;101488.47;;;1.89;99.17
34931;BME280;21134;49.646;8.560;2023-01-31T03:30:58;101493.91;;;1.80;98.82
34931;BME280;21134;49.646;8.560;2023-01-31T03:33:30;101493.38;;;1.69;99.74
34931;BME280;21134;49.646;8.560;2023-01-31T03:36:05;101495.44;;;1.60;99.66
34931;BME280;21134;49.646;8.560;2023-01-31T03:38:43;101500.00;;;1.51;99.92
34931;BME280;21134;49.646;8.560;2023-01-31T03:41:18;101509.75;;;1.45;100.00
34931;BME280;21134;49.646;8.560;2023-01-31T03:43:52;101500.91;;;1.36;100.00
34931;BME280;21134;49.646;8.560;2023-01-31T03:46:26;101508.94;;;1.29;100.00
34931;BME280;21134;49.646;8.560;2023-01-31T03:48:55;101512.81;;;1.23;100.00
34931;BME280;21134;49.646;8.560;2023-01-31T03:51:27;101512.63;;;1.20;100.00
34931;BME280;21134;49.646;8.560;2023-01-31T03:53:59;101518.16;;;1.12;100.00
34931;BME280;21134;49.646;8.560;2023-01-31T03:56:31;101526.22;;;1.07;100.00
34931;BME280;21134;49.646;8.560;2023-01-31T03:59:02;101523.47;;;1.02;100.00
34931;BME280;21134;49.646;8.560;2023-01-31T04:01:33;101521.66;;;1.00;100.00
34931;BME280;21134;49.646;8.560;2023-01-31T04:04:04;101525.41;;;0.91;100.00
34931;BME280;21134;49.646;8.560;2023-01-31T04:06:34;101515.59;;;0.81;100.00
34931;BME280;21134;49.646;8.560;2023-01-31T04:09:01;101512.75;;;0.75;100.00
34931;BME280;21134;49.646;8.560;2023-01-31T04:11:28;101513.44;;;0.73;100.00
34931;BME280;21134;49.646;8.560;2023-01-31T04:13:55;101519.09;;;0.68;100.00
34931;BME280;21134;49.646;8.560;2023-01-31T04:16:21;101525.53;;;0.63;100.00
34931;BME280;21134;49.646;8.560;2023-01-31T04:18:48;101523.00;;;0.63;100.00
34931;BME280;21134;49.646;8.560;2023-01-31T04:21:15;101516.75;;;0.57;100.00
34931;BME280;21134;49.646;8.560;2023-01-31T04:23:43;101525.09;;;0.56;100.00
34931;BME280;21134;49.646;8.560;2023-01-31T04:26:10;101526.66;;;0.54;100.00
34931;BME280;21134;49.646;8.560;2023-01-31T04:28:36;101519.47;;;0.45;100.00
34931;BME280;21134;49.646;8.560;2023-01-31T04:31:03;101524.91;;;0.38;100.00
34931;BME280;21134;49.646;8.560;2023-01-31T04:33:29;101523.72;;;0.31;100.00
34931;BME280;21134;49.646;8.560;2023-01-31T04:35:56;101519.28;;;0.27;100.00
34931;BME280;21134;49.646;8.560;2023-01-31T04:38:23;101517.47;;;0.25;100.00
34931;BME280;21134;49.646;8.560;2023-01-31T04:40:51;101502.97;;;0.20;100.00
34931;BME280;21134;49.646;8.560;2023-01-31T04:43:17;101509.38;;;0.15;100.00
34931;BME280;21134;49.646;8.560;2023-01-31T04:45:44;101508.34;;;0.12;100.00
34931;BME280;21134;49.646;8.560;2023-01-31T04:48:10;101508.09;;;0.07;100.00
34931;BME280;21134;49.646;8.560;2023-01-31T04:50:37;101507.91;;;0.04;100.00
34931;BME280;21134;49.646;8.560;2023-01-31T04:53:04;101515.28;;;0.01;100.00
34931;BME280;21134;49.646;8.560;2023-01-31T04:55:32;101501.31;;;-0.09;100.00
34931;BME280;21134;49.646;8.560;2023-01-31T04:58:00;101502.84;;;-0.11;100.00
34931;BME280;21134;49.646;8.560;2023-01-31T05:00:27;101496.53;;;-0.19;100.00
34931;BME280;21134;49.646;8.560;2023-01-31T05:02:53;101495.44;;;-0.22;100.00
34931;BME280;21134;49.646;8.560;2023-01-31T05:05:20;101500.91;;;-0.30;100.00
34931;BME280;21134;49.646;8.560;2023-01-31T05:07:47;101510.03;;;-0.32;100.00
34931;BME280;21134;49.646;8.560;2023-01-31T05:10:13;101506.44;;;-0.35;100.00
34931;BME280;21134;49.646;8.560;2023-01-31T05:12:40;101508.88;;;-0.37;100.00
34931;BME280;21134;49.646;8.560;2023-01-31T05:15:09;101501.13;;;-0.40;100.00
34931;BME280;21134;49.646;8.560;2023-01-31T05:17:36;101501.63;;;-0.45;100.00
34931;BME280;21134;49.646;8.560;2023-01-31T05:20:04;101496.59;;;-0.45;100.00
34931;BME280;21134;49.646;8.560;2023-01-31T05:22:30;101496.59;;;-0.45;100.00
34931;BME280;21134;49.646;8.560;2023-01-31T05:24:57;101492.44;;;-0.45;100.00
34931;BME280;21134;49.646;8.560;2023-01-31T05:27:23;101496.72;;;-0.44;100.00
34931;BME280;21134;49.646;8.560;2023-01-31T05:29:50;101494.88;;;-0.47;100.00
34931;BME280;21134;49.646;8.560;2023-01-31T05:32:18;101493.03;;;-0.49;100.00
34931;BME280;21134;49.646;8.560;2023-01-31T05:34:44;101494.59;;;-0.51;100.00
34931;BME280;21134;49.646;8.560;2023-01-31T05:37:11;101494.31;;;-0.56;100.00
34931;BME280;21134;49.646;8.560;2023-01-31T05:39:37;101492.69;;;-0.55;100.00
34931;BME280;21134;49.646;8.560;2023-01-31T05:42:04;101479.44;;;-0.53;100.00
34931;BME280;21134;49.646;8.560;2023-01-31T05:44:30;101482.03;;;-0.51;100.00
34931;BME280;21134;49.646;8.560;2023-01-31T05:46:57;101493.72;;;-0.52;100.00
34931;BME280;21134;49.646;8.560;2023-01-31T05:49:26;101487.94;;;-0.51;100.00
34931;BME280;21134;49.646;8.560;2023-01-31T05:51:56;101484.47;;;-0.53;100.00
34931;BME280;21134;49.646;8.560;2023-01-31T05:54:22;101490.28;;;-0.54;100.00
34931;BME280;21134;49.646;8.560;2023-01-31T05:56:49;101491.63;;;-0.59;100.00
34931;BME280;21134;49.646;8.560;2023-01-31T05:59:15;101488.84;;;-0.63;100.00
34931;BME280;21134;49.646;8.560;2023-01-31T06:01:42;101493.97;;;-0.62;100.00
34931;BME280;21134;49.646;8.560;2023-01-31T06:04:08;101491.25;;;-0.65;100.00
34931;BME280;21134;49.646;8.560;2023-01-31T06:06:36;101503.81;;;-0.65;100.00
34931;BME280;21134;49.646;8.560;2023-01-31T06:09:03;101503.16;;;-0.62;100.00
34931;BME280;21134;49.646;8.560;2023-01-31T06:11:29;101502.72;;;-0.55;100.00
34931;BME280;21134;49.646;8.560;2023-01-31T06:13:56;101513.25;;;-0.48;100.00
34931;BME280;21134;49.646;8.560;2023-01-31T06:16:23;101514.31;;;-0.44;100.00
34931;BME280;21134;49.646;8.560;2023-01-31T06:18:49;101516.28;;;-0.38;100.00
34931;BME280;21134;49.646;8.560;2023-01-31T06:21:16;101516.59;;;-0.34;100.00
34931;BME280;21134;49.646;8.560;2023-01-31T06:23:43;101517.81;;;-0.27;100.00
34931;BME280;21134;49.646;8.560;2023-01-31T06:26:12;101515.66;;;-0.21;100.00
34931;BME280;21134;49.646;8.560;2023-01-31T06:28:38;101505.19;;;-0.14;100.00
34931;BME280;21134;49.646;8.560;2023-01-31T06:31:06;101503.22;;;-0.05;100.00
34931;BME280;21134;49.646;8.560;2023-01-31T06:33:32;101495.41;;;0.06;100.00
34931;BME280;21134;49.646;8.560;2023-01-31T06:35:59;101501.75;;;0.14;100.00
34931;BME280;21134;49.646;8.560;2023-01-31T06:38:25;101500.53;;;0.22;100.00
34931;BME280;21134;49.646;8.560;2023-01-31T06:40:53;101502.53;;;0.28;100.00
34931;BME280;21134;49.646;8.560;2023-01-31T06:43:20;101503.69;;;0.33;100.00
34931;BME280;21134;49.646;8.560;2023-01-31T06:45:46;101501.34;;;0.36;100.00
34931;BME280;21134;49.646;8.560;2023-01-31T06:48:13;101509.81;;;0.38;100.00
34931;BME280;21134;49.646;8.560;2023-01-31T06:50:40;101502.44;;;0.41;100.00
34931;BME280;21134;49.646;8.560;2023-01-31T06:53:07;101515.38;;;0.47;100.00
34931;BME280;21134;49.646;8.560;2023-01-31T06:55:33;101511.53;;;0.54;100.00
34931;BME280;21134;49.646;8.560;2023-01-31T06:58:01;101507.56;;;0.57;100.00
34931;BME280;21134;49.646;8.560;2023-01-31T07:00:28;101502.84;;;0.63;100.00
34931;BME280;21134;49.646;8.560;2023-01-31T07:02:54;101515.53;;;0.65;100.00
34931;BME280;21134;49.646;8.560;2023-01-31T07:05:21;101519.56;;;0.61;100.00
34931;BME280;21134;49.646;8.560;2023-01-31T07:07:48;101515.44;;;0.63;100.00
34931;BME280;21134;49.646;8.560;2023-01-31T07:10:15;101528.22;;;0.66;100.00
34931;BME280;21134;49.646;8.560;2023-01-31T07:12:41;101520.13;;;0.72;100.00
34931;BME280;21134;49.646;8.560;2023-01-31T07:15:10;101526.13;;;0.74;100.00
34931;BME280;21134;49.646;8.560;2023-01-31T07:17:36;101530.88;;;0.84;100.00
34931;BME280;21134;49.646;8.560;2023-01-31T07:20:04;101537.75;;;0.87;100.00
34931;BME280;21134;49.646;8.560;2023-01-31T07:22:30;101539.66;;;0.91;100.00
34931;BME280;21134;49.646;8.560;2023-01-31T07:24:57;101544.69;;;0.91;100.00
34931;BME280;21134;49.646;8.560;2023-01-31T07:27:24;101548.75;;;0.89;100.00
34931;BME280;21134;49.646;8.560;2023-01-31T07:29:50;101552.94;;;0.88;100.00
34931;BME280;21134;49.646;8.560;2023-01-31T07:32:18;101563.88;;;0.89;100.00
34931;BME280;21134;49.646;8.560;2023-01-31T07:34:44;101556.66;;;0.95;100.00
34931;BME280;21134;49.646;8.560;2023-01-31T07:37:11;101552.47;;;0.96;100.00
34931;BME280;21134;49.646;8.560;2023-01-31T07:39:38;101554.31;;;0.98;100.00
34931;BME280;21134;49.646;8.560;2023-01-31T07:42:04;101561.19;;;1.01;100.00
34931;BME280;21134;49.646;8.560;2023-01-31T07:44:31;101553.09;;;1.06;100.00
34931;BME280;21134;49.646;8.560;2023-01-31T07:46:57;101551.59;;;1.10;100.00
34931;BME280;21134;49.646;8.560;2023-01-31T07:49:25;101551.94;;;1.16;100.00
34931;BME280;21134;49.646;8.560;2023-01-31T07:51:51;101558.88;;;1.20;100.00
34931;BME280;21134;49.646;8.560;2023-01-31T07:54:18;101554.09;;;1.25;100.00
34931;BME280;21134;49.646;8.560;2023-01-31T07:56:44;101561.03;;;1.29;100.00
34931;BME280;21134;49.646;8.560;2023-01-31T07:59:12;101566.13;;;1.30;100.00
34931;BME280;21134;49.646;8.560;2023-01-31T08:01:38;101572.22;;;1.34;100.00
34931;BME280;21134;49.646;8.560;2023-01-31T08:04:21;101576.72;;;1.39;100.00
34931;BME280;21134;49.646;8.560;2023-01-31T08:06:52;101571.84;;;1.43;100.00
34931;BME280;21134;49.646;8.560;2023-01-31T08:09:19;101578.88;;;1.48;100.00
34931;BME280;21134;49.646;8.560;2023-01-31T08:11:45;101576.75;;;1.56;100.00
34931;BME280;21134;49.646;8.560;2023-01-31T08:14:12;101569.81;;;1.68;100.00
34931;BME280;21134;49.646;8.560;2023-01-31T08:16:38;101572.66;;;1.74;100.00
34931;BME280;21134;49.646;8.560;2023-01-31T08:19:05;101569.28;;;1.90;100.00
34931;BME280;21134;49.646;8.560;2023-01-31T08:21:31;101572.34;;;2.01;100.00
34931;BME280;21134;49.646;8.560;2023-01-31T08:23:59;101552.94;;;2.16;100.00
34931;BME280;21134;49.646;8.560;2023-01-31T08:26:26;101561.78;;;2.24;100.00
34931;BME280;21134;49.646;8.560;2023-01-31T08:28:52;101560.47;;;2.32;99.11
34931;BME280;21134;49.646;8.560;2023-01-31T08:31:21;101555.03;;;2.41;98.63
34931;BME280;21134;49.646;8.560;2023-01-31T08:33:48;101553.91;;;2.52;97.08
34931;BME280;21134;49.646;8.560;2023-01-31T08:36:19;101549.63;;;2.51;98.10
34931;BME280;21134;49.646;8.560;2023-01-31T08:38:46;101551.03;;;2.63;97.11
34931;BME280;21134;49.646;8.560;2023-01-31T08:41:14;101553.03;;;2.70;96.92
34931;BME280;21134;49.646;8.560;2023-01-31T08:43:42;101555.56;;;2.70;96.14
34931;BME280;21134;49.646;8.560;2023-01-31T08:46:09;101554.84;;;2.72;96.88
34931;BME280;21134;49.646;8.560;2023-01-31T08:48:36;101556.59;;;2.73;96.28
34931;BME280;21134;49.646;8.560;2023-01-31T08:51:05;101554.13;;;2.93;95.54
34931;BME280;21134;49.646;8.560;2023-01-31T08:53:32;101560.34;;;2.99;94.27
34931;BME280;21134;49.646;8.560;2023-01-31T08:55:59;101555.09;;;2.95;95.20
34931;BME280;21134;49.646;8.560;2023-01-31T08:58:27;101549.31;;;2.97;95.64
34931;BME280;21134;49.646;8.560;2023-01-31T09:00:59;101535.16;;;3.01;95.55
34931;BME280;21134;49.646;8.560;2023-01-31T09:03:26;101543.06;;;3.09;95.29
34931;BME280;21134;49.646;8.560;2023-01-31T09:05:52;101547.22;;;3.07;95.37
34931;BME280;21134;49.646;8.560;2023-01-31T09:08:19;101565.81;;;3.09;94.27
34931;BME280;21134;49.646;8.560;2023-01-31T09:10:49;101564.16;;;3.09;95.00
34931;BME280;21134;49.646;8.560;2023-01-31T09:13:15;101560.63;;;3.23;94.13
34931;BME280;21134;49.646;8.560;2023-01-31T09:15:43;101553.91;;;3.24;93.31
34931;BME280;21134;49.646;8.560;2023-01-31T09:18:10;101555.63;;;3.25;93.64
34931;BME280;21134;49.646;8.560;2023-01-31T09:20:36;101557.28;;;3.24;94.28
34931;BME280;21134;49.646;8.560;2023-01-31T09:23:03;101554.09;;;3.29;93.90
34931;BME280;21134;49.646;8.560;2023-01-31T09:25:29;101553.50;;;3.34;93.08
34931;BME280;21134;49.646;8.560;2023-01-31T09:27:56;101545.94;;;3.34;93.85
34931;BME280;21134;49.646;8.560;2023-01-31T09:30:22;101544.06;;;3.30;93.42
34931;BME280;21134;49.646;8.560;2023-01-31T09:32:50;101533.09;;;3.30;94.01
34931;BME280;21134;49.646;8.560;2023-01-31T09:35:16;101532.28;;;3.31;94.57
34931;BME280;21134;49.646;8.560;2023-01-31T09:37:45;101531.59;;;3.35;94.34
34931;BME280;21134;49.646;8.560;2023-01-31T09:40:15;101541.16;;;3.40;93.88
34931;BME280;21134;49.646;8.560;2023-01-31T09:42:44;101530.16;;;3.40;94.36
34931;BME280;21134;49.646;8.560;2023-01-31T09:45:14;101531.38;;;3.48;94.29
34931;BME280;21134;49.646;8.560;2023-01-31T09:47:44;101533.16;;;3.70;91.92
34931;BME280;21134;49.646;8.560;2023-01-31T09:50:18;101539.19;;;3.72;92.13
34931;BME280;21134;49.646;8.560;2023-01-31T09:52:45;101534.91;;;3.71;92.10
34931;BME280;21134;49.646;8.560;2023-01-31T09:55:15;101546.72;;;3.70;92.65
34931;BME280;21134;49.646;8.560;2023-01-31T09:57:49;101551.16;;;3.76;92.16
34931;BME280;21134;49.646;8.560;2023-01-31T10:00:22;101554.75;;;4.01;90.57
34931;BME280;21134;49.646;8.560;2023-01-31T10:03:02;101551.81;;;4.11;90.41
34931;BME280;21134;49.646;8.560;2023-01-31T10:05:39;101549.63;;;4.18;89.97
34931;BME280;21134;49.646;8.560;2023-01-31T10:08:14;101557.59;;;4.28;90.01
34931;BME280;21134;49.646;8.560;2023-01-31T10:10:46;101554.94;;;4.46;89.48
34931;BME280;21134;49.646;8.560;2023-01-31T10:13:19;101547.69;;;4.53;89.98
34931;BME280;21134;49.646;8.560;2023-01-31T10:15:48;101543.19;;;4.69;87.90
34931;BME280;21134;49.646;8.560;2023-01-31T10:18:22;101521.19;;;4.68;88.44
34931;BME280;21134;49.646;8.560;2023-01-31T10:20:52;101515.28;;;4.67;88.07
34931;BME280;21134;49.646;8.560;2023-01-31T10:23:24;101514.81;;;4.77;87.84
34931;BME280;21134;49.646;8.560;2023-01-31T10:25:56;101506.47;;;4.59;88.80
34931;BME280;21134;49.646;8.560;2023-01-31T10:28:30;101514.44;;;4.68;88.98
34931;BME280;21134;49.646;8.560;2023-01-31T10:31:04;101521.28;;;4.69;88.86
34931;BME280;21134;49.646;8.560;2023-01-31T10:33:43;101518.91;;;4.74;88.91
34931;BME280;21134;49.646;8.560;2023-01-31T10:36:15;101503.94;;;4.80;88.80
34931;BME280;21134;49.646;8.560;2023-01-31T10:38:53;101497.78;;;4.96;87.79
34931;BME280;21134;49.646;8.560;2023-01-31T10:41:28;101508.44;;;4.87;88.17
34931;BME280;21134;49.646;8.560;2023-01-31T10:43:59;101509.13;;;4.83;88.75
34931;BME280;21134;49.646;8.560;2023-01-31T10:46:28;101512.03;;;4.71;89.41
34931;BME280;21134;49.646;8.560;2023-01-31T10:48:55;101506.47;;;4.59;89.74
34931;BME280;21134;49.646;8.560;2023-01-31T10:51:44;101522.47;;;4.56;90.16
34931;BME280;21134;49.646;8.560;2023-01-31T10:54:24;101524.06;;;4.54;89.73
34931;BME280;21134;49.646;8.560;2023-01-31T10:56:58;101527.81;;;4.43;89.56
34931;BME280;21134;49.646;8.560;2023-01-31T10:59:28;101512.13;;;4.52;89.72
34931;BME280;21134;49.646;8.560;2023-01-31T11:01:56;101532.84;;;4.41;90.37
34931;BME280;21134;49.646;8.560;2023-01-31T11:04:27;101520.59;;;4.31;90.78
34931;BME280;21134;49.646;8.560;2023-01-31T11:06:57;101498.66;;;4.32;91.11
34931;BME280;21134;49.646;8.560;2023-01-31T11:09:26;101485.56;;;4.42;91.09
34931;BME280;21134;49.646;8.560;2023-01-31T11:11:55;101473.16;;;4.50;90.33
34931;BME280;21134;49.646;8.560;2023-01-31T11:14:23;101456.38;;;4.52;89.70
34931;BME280;21134;49.646;8.560;2023-01-31T11:16:56;101458.91;;;4.52;90.82
34931;BME280;21134;49.646;8.560;2023-01-31T11:19:32;101445.50;;;4.54;91.00
34931;BME280;21134;49.646;8.560;2023-01-31T11:22:01;101429.19;;;4.70;89.06
34931;BME280;21134;49.646;8.560;2023-01-31T11:24:29;101424.28;;;4.75;89.04
34931;BME280;21134;49.646;8.560;2023-01-31T11:26:59;101425.25;;;5.01;86.22
34931;BME280;21134;49.646;8.560;2023-01-31T11:29:28;101441.28;;;5.00;86.50
34931;BME280;21134;49.646;8.560;2023-01-31T11:31:56;101433.97;;;5.07;84.72
34931;BME280;21134;49.646;8.560;2023-01-31T11:34:25;101441.59;;;5.07;85.00
34931;BME280;21134;49.646;8.560;2023-01-31T11:37:04;101422.72;;;5.01;84.96
34931;BME280;21134;49.646;8.560;2023-01-31T11:39:32;101414.63;;;4.87;86.72
34931;BME280;21134;49.646;8.560;2023-01-31T11:42:09;101413.91;;;4.91;86.74
34931;BME280;21134;49.646;8.560;2023-01-31T11:44:53;101403.84;;;4.93;86.56
34931;BME280;21134;49.646;8.560;2023-01-31T11:47:24;101391.97;;;4.92;86.42
34931;BME280;21134;49.646;8.560;2023-01-31T11:49:52;101379.44;;;4.96;87.19
34931;BME280;21134;49.646;8.560;2023-01-31T11:52:26;101367.38;;;4.89;86.47
34931;BME280;21134;49.646;8.560;2023-01-31T11:54:56;101372.56;;;4.92;86.37
34931;BME280;21134;49.646;8.560;2023-01-31T11:57:25;101387.47;;;4.84;87.03
34931;BME280;21134;49.646;8.560;2023-01-31T11:59:54;101380.63;;;4.82;87.18
34931;BME280;21134;49.646;8.560;2023-01-31T12:02:35;101366.66;;;4.93;86.14
34931;BME280;21134;49.646;8.560;2023-01-31T12:05:11;101364.59;;;4.83;86.77
34931;BME280;21134;49.646;8.560;2023-01-31T12:07:45;101374.22;;;4.92;85.90
34931;BME280;21134;49.646;8.560;2023-01-31T12:10:29;101371.28;;;4.81;86.43
34931;BME280;21134;49.646;8.560;2023-01-31T12:12:58;101372.97;;;4.80;86.81
34931;BME280;21134;49.646;8.560;2023-01-31T12:15:27;101367.19;;;4.84;85.95
34931;BME280;21134;49.646;8.560;2023-01-31T12:17:54;101363.41;;;4.73;86.96
34931;BME280;21134;49.646;8.560;2023-01-31T12:20:30;101362.44;;;4.94;85.32
34931;BME280;21134;49.646;8.560;2023-01-31T12:23:10;101359.31;;;4.77;86.61
34931;BME280;21134;49.646;8.560;2023-01-31T12:25:48;101339.50;;;4.90;85.74
34931;BME280;21134;49.646;8.560;2023-01-31T12:28:26;101343.91;;;4.95;86.10
34931;BME280;21134;49.646;8.560;2023-01-31T12:31:17;101366.63;;;4.92;86.32
34931;BME280;21134;49.646;8.560;2023-01-31T12:33:57;101351.34;;;4.90;85.77
34931;BME280;21134;49.646;8.560;2023-01-31T12:36:44;101353.59;;;4.82;86.74
34931;BME280;21134;49.646;8.560;2023-01-31T12:39:27;101350.09;;;4.79;87.12
34931;BME280;21134;49.646;8.560;2023-01-31T12:42:13;101335.78;;;4.81;87.18
34931;BME280;21134;49.646;8.560;2023-01-31T12:44:44;101326.41;;;4.78;87.05
34931;BME280;21134;49.646;8.560;2023-01-31T12:47:49;101291.22;;;5.11;85.87
34931;BME280;21134;49.646;8.560;2023-01-31T12:50:26;101310.22;;;4.99;86.03
34931;BME280;21134;49.646;8.560;2023-01-31T12:53:11;101317.66;;;5.18;85.67
34931;BME280;21134;49.646;8.560;2023-01-31T12:55:48;101305.72;;;5.16;85.38
34931;BME280;21134;49.646;8.560;2023-01-31T12:58:27;101296.09;;;5.05;86.48
34931;BME280;21134;49.646;8.560;2023-01-31T13:01:00;101298.34;;;4.98;86.55
34931;BME280;21134;49.646;8.560;2023-01-31T13:03:36;101283.06;;;4.95;86.82
34931;BME280;21134;49.646;8.560;2023-01-31T13:06:06;101276.44;;;5.00;87.08
34931;BME280;21134;49.646;8.560;2023-01-31T13:08:42;101266.41;;;5.03;86.58
34931;BME280;21134;49.646;8.560;2023-01-31T13:11:16;101271.47;;;5.03;86.72
34931;BME280;21134;49.646;8.560;2023-01-31T13:13:47;101287.13;;;4.91;87.40